sensor_id;sensor_type;location;lat;lon;timestamp;pressure;altitude;pressure_sealevel;temperature;humidity
80401;BME280;69727;53.132;8.230;2024-02-21T00:00:34;101928.34;;;8.65;88.81
80401;BME280;69727;53.132;8.230;2024-02-21T00:02:59;101925.38;;;8.68;88.88
80401;BME280;69727;53.132;8.230;2024-02-21T00:05:27;101933.41;;;8.68;89.33
80401;BME280;69727;53.132;8.230;2024-02-21T00:07:52;101932.63;;;8.76;89.05
80401;BME280;69727;53.132;8.230;2024-02-21T00:10:18;101917.72;;;8.73;88.82
80401;BME280;69727;53.132;8.230;2024-02-21T00:12:43;101918.53;;;8.74;88.58
80401;BME280;69727;53.132;8.230;2024-02-21T00:15:09;101908.19;;;8.79;88.06
80401;BME280;69727;53.132;8.230;2024-02-21T00:17:34;101922.28;;;8.81;88.21
80401;BME280;69727;53.132;8.230;2024-02-21T00:20:00;101915.72;;;8.75;88.20
80401;BME280;69727;53.132;8.230;2024-02-21T00:22:25;101918.06;;;8.78;88.03
80401;BME280;69727;53.132;8.230;2024-02-21T00:24:54;101917.56;;;8.75;88.34
80401;BME280;69727;53.132;8.230;2024-02-21T00:27:19;101917.22;;;8.78;87.99
80401;BME280;69727;53.132;8.230;2024-02-21T00:29:45;101915.59;;;8.85;87.82
80401;BME280;69727;53.132;8.230;2024-02-21T00:32:10;101930.16;;;8.82;87.98
80401;BME280;69727;53.132;8.230;2024-02-21T00:34:36;101917.06;;;8.79;88.04
80401;BME280;69727;53.132;8.230;2024-02-21T00:37:01;101910.03;;;8.78;88.18
80401;BME280;69727;53.132;8.230;2024-02-21T00:39:27;101912.91;;;8.85;87.96
80401;BME280;69727;53.132;8.230;2024-02-21T00:41:52;101911.63;;;8.89;87.73
80401;BME280;69727;53.132;8.230;2024-02-21T00:44:18;101907.56;;;8.85;87.64
80401;BME280;69727;53.132;8.230;2024-02-21T00:46:43;101904.03;;;8.84;87.95
80401;BME280;69727;53.132;8.230;2024-02-21T00:49:09;101905.22;;;8.82;88.01
80401;BME280;69727;53.132;8.230;2024-02-21T00:51:34;101913.25;;;8.82;88.19
80401;BME280;69727;53.132;8.230;2024-02-21T00:54:00;101904.69;;;8.78;88.26
80401;BME280;69727;53.132;8.230;2024-02-21T00:56:26;101890.16;;;8.81;87.93
80401;BME280;69727;53.132;8.230;2024-02-21T00:58:52;101900.69;;;8.82;88.12
80401;BME280;69727;53.132;8.230;2024-02-21T01:01:24;101885.69;;;8.89;87.56
80401;BME280;69727;53.132;8.230;2024-02-21T01:03:50;101888.50;;;8.88;87.60
80401;BME280;69727;53.132;8.230;2024-02-21T01:06:18;101881.81;;;8.92;87.35
80401;BME280;69727;53.132;8.230;2024-02-21T01:08:44;101877.78;;;8.88;87.83
80401;BME280;69727;53.132;8.230;2024-02-21T01:11:09;101879.28;;;8.90;87.67
80401;BME280;69727;53.132;8.230;2024-02-21T01:13:35;101864.41;;;8.88;87.72
80401;BME280;69727;53.132;8.230;2024-02-21T01:16:00;101863.91;;;8.92;87.44
80401;BME280;69727;53.132;8.230;2024-02-21T01:18:25;101866.59;;;8.92;87.42
80401;BME280;69727;53.132;8.230;2024-02-21T01:20:51;101865.03;;;8.82;88.05
80401;BME280;69727;53.132;8.230;2024-02-21T01:23:16;101856.69;;;8.85;87.75
80401;BME280;69727;53.132;8.230;2024-02-21T01:25:41;101853.78;;;8.78;88.26
80401;BME280;69727;53.132;8.230;2024-02-21T01:28:07;101846.31;;;8.82;87.81
80401;BME280;69727;53.132;8.230;2024-02-21T01:30:34;101825.88;;;8.81;87.75
80401;BME280;69727;53.132;8.230;2024-02-21T01:33:00;101808.28;;;8.78;87.92
80401;BME280;69727;53.132;8.230;2024-02-21T01:35:25;101771.66;;;8.87;87.41
80401;BME280;69727;53.132;8.230;2024-02-21T01:37:51;101792.41;;;8.85;87.40
80401;BME280;69727;53.132;8.230;2024-02-21T01:40:17;101784.53;;;8.83;87.47
80401;BME280;69727;53.132;8.230;2024-02-21T01:42:42;101780.19;;;8.82;87.44
80401;BME280;69727;53.132;8.230;2024-02-21T01:45:08;101765.97;;;8.82;87.68
80401;BME280;69727;53.132;8.230;2024-02-21T01:47:34;101760.72;;;8.72;87.85
80401;BME280;69727;53.132;8.230;2024-02-21T01:50:00;101766.63;;;8.76;87.82
80401;BME280;69727;53.132;8.230;2024-02-21T01:52:28;101757.91;;;8.74;87.72
80401;BME280;69727;53.132;8.230;2024-02-21T01:54:54;101750.50;;;8.68;88.02
80401;BME280;69727;53.132;8.230;2024-02-21T01:57:19;101758.41;;;8.77;88.25
80401;BME280;69727;53.132;8.230;2024-02-21T01:59:45;101761.94;;;8.86;87.26
80401;BME280;69727;53.132;8.230;2024-02-21T02:02:11;101738.81;;;8.77;87.65
80401;BME280;69727;53.132;8.230;2024-02-21T02:04:38;101742.16;;;8.71;87.99
80401;BME280;69727;53.132;8.230;2024-02-21T02:07:04;101734.44;;;8.68;88.05
80401;BME280;69727;53.132;8.230;2024-02-21T02:09:31;101740.84;;;8.75;87.77
80401;BME280;69727;53.132;8.230;2024-02-21T02:11:57;101749.69;;;8.67;88.23
80401;BME280;69727;53.132;8.230;2024-02-21T02:16:49;101735.44;;;8.66;87.99
80401;BME280;69727;53.132;8.230;2024-02-21T02:19:15;101744.16;;;8.69;87.86
80401;BME280;69727;53.132;8.230;2024-02-21T02:21:53;101746.47;;;8.63;88.58
80401;BME280;69727;53.132;8.230;2024-02-21T02:24:22;101763.22;;;8.65;88.33
80401;BME280;69727;53.132;8.230;2024-02-21T02:26:49;101771.44;;;8.72;87.98
80401;BME280;69727;53.132;8.230;2024-02-21T02:29:14;101765.75;;;8.67;88.12
80401;BME280;69727;53.132;8.230;2024-02-21T02:31:40;101763.94;;;8.76;88.06
80401;BME280;69727;53.132;8.230;2024-02-21T02:34:05;101766.94;;;8.73;88.01
80401;BME280;69727;53.132;8.230;2024-02-21T02:36:33;101755.06;;;8.75;87.86
80401;BME280;69727;53.132;8.230;2024-02-21T02:38:59;101746.19;;;8.75;87.95
80401;BME280;69727;53.132;8.230;2024-02-21T02:41:25;101759.88;;;8.72;87.77
80401;BME280;69727;53.132;8.230;2024-02-21T02:43:50;101757.22;;;8.72;88.17
80401;BME280;69727;53.132;8.230;2024-02-21T02:46:16;101761.88;;;8.70;88.20
80401;BME280;69727;53.132;8.230;2024-02-21T02:48:41;101761.41;;;8.74;88.19
80401;BME280;69727;53.132;8.230;2024-02-21T02:51:06;101758.59;;;8.76;88.09
80401;BME280;69727;53.132;8.230;2024-02-21T02:53:32;101753.69;;;8.71;88.27
80401;BME280;69727;53.132;8.230;2024-02-21T02:55:57;101744.84;;;8.79;87.96
80401;BME280;69727;53.132;8.230;2024-02-21T02:58:23;101746.84;;;8.77;87.84
80401;BME280;69727;53.132;8.230;2024-02-21T03:00:48;101739.31;;;8.72;88.17
80401;BME280;69727;53.132;8.230;2024-02-21T03:03:14;101742.47;;;8.68;89.08
80401;BME280;69727;53.132;8.230;2024-02-21T03:05:39;101741.50;;;8.69;89.30
80401;BME280;69727;53.132;8.230;2024-02-21T03:08:05;101743.59;;;8.57;90.48
80401;BME280;69727;53.132;8.230;2024-02-21T03:10:33;101748.06;;;8.48;91.47
80401;BME280;69727;53.132;8.230;2024-02-21T03:12:58;101733.97;;;8.38;92.31
80401;BME280;69727;53.132;8.230;2024-02-21T03:15:24;101745.69;;;8.37;92.65
80401;BME280;69727;53.132;8.230;2024-02-21T03:17:49;101746.59;;;8.28;93.38
80401;BME280;69727;53.132;8.230;2024-02-21T03:20:15;101744.09;;;8.26;93.73
80401;BME280;69727;53.132;8.230;2024-02-21T03:22:40;101748.22;;;8.21;94.29
80401;BME280;69727;53.132;8.230;2024-02-21T03:25:07;101739.00;;;8.15;94.66
80401;BME280;69727;53.132;8.230;2024-02-21T03:27:32;101738.00;;;8.16;94.64
80401;BME280;69727;53.132;8.230;2024-02-21T03:29:58;101742.66;;;8.14;95.05
80401;BME280;69727;53.132;8.230;2024-02-21T03:32:23;101732.81;;;8.15;95.10
80401;BME280;69727;53.132;8.230;2024-02-21T03:34:49;101733.59;;;8.07;95.66
80401;BME280;69727;53.132;8.230;2024-02-21T03:37:14;101729.56;;;8.03;95.74
80401;BME280;69727;53.132;8.230;2024-02-21T03:39:40;101735.75;;;8.04;96.25
80401;BME280;69727;53.132;8.230;2024-02-21T03:42:06;101738.44;;;8.04;96.46
80401;BME280;69727;53.132;8.230;2024-02-21T03:44:32;101740.56;;;8.00;97.00
80401;BME280;69727;53.132;8.230;2024-02-21T03:46:58;101742.03;;;7.95;97.50
80401;BME280;69727;53.132;8.230;2024-02-21T03:49:24;101734.03;;;7.95;97.26
80401;BME280;69727;53.132;8.230;2024-02-21T03:51:49;101730.00;;;7.91;97.79
80401;BME280;69727;53.132;8.230;2024-02-21T03:54:15;101731.13;;;7.88;97.69
80401;BME280;69727;53.132;8.230;2024-02-21T03:56:40;101732.13;;;7.87;97.85
80401;BME280;69727;53.132;8.230;2024-02-21T03:59:09;101721.13;;;7.90;97.91
80401;BME280;69727;53.132;8.230;2024-02-21T04:01:35;101738.16;;;7.89;97.91
80401;BME280;69727;53.132;8.230;2024-02-21T04:04:01;101726.41;;;7.82;98.40
80401;BME280;69727;53.132;8.230;2024-02-21T04:06:26;101728.09;;;7.83;98.63
80401;BME280;69727;53.132;8.230;2024-02-21T04:08:51;101729.25;;;7.80;98.78
80401;BME280;69727;53.132;8.230;2024-02-21T04:11:17;101732.59;;;7.82;98.53
80401;BME280;69727;53.132;8.230;2024-02-21T04:13:44;101721.53;;;7.77;98.79
80401;BME280;69727;53.132;8.230;2024-02-21T04:16:10;101734.44;;;7.82;98.98
80401;BME280;69727;53.132;8.230;2024-02-21T04:18:35;101733.59;;;7.81;98.71
80401;BME280;69727;53.132;8.230;2024-02-21T04:21:01;101735.56;;;7.79;98.75
80401;BME280;69727;53.132;8.230;2024-02-21T04:23:26;101728.41;;;7.80;98.87
80401;BME280;69727;53.132;8.230;2024-02-21T04:25:51;101717.84;;;7.78;98.97
80401;BME280;69727;53.132;8.230;2024-02-21T04:28:17;101725.56;;;7.81;99.13
80401;BME280;69727;53.132;8.230;2024-02-21T04:30:43;101724.44;;;7.84;98.67
80401;BME280;69727;53.132;8.230;2024-02-21T04:33:08;101718.41;;;7.82;99.09
80401;BME280;69727;53.132;8.230;2024-02-21T04:35:36;101708.00;;;7.79;99.04
80401;BME280;69727;53.132;8.230;2024-02-21T04:38:01;101717.41;;;7.83;99.03
80401;BME280;69727;53.132;8.230;2024-02-21T04:40:26;101708.84;;;7.79;99.01
80401;BME280;69727;53.132;8.230;2024-02-21T04:42:52;101717.56;;;7.81;98.92
80401;BME280;69727;53.132;8.230;2024-02-21T04:45:17;101708.69;;;7.81;98.76
80401;BME280;69727;53.132;8.230;2024-02-21T04:47:43;101706.56;;;7.84;98.87
80401;BME280;69727;53.132;8.230;2024-02-21T04:50:08;101709.81;;;7.78;99.21
80401;BME280;69727;53.132;8.230;2024-02-21T04:52:34;101721.91;;;7.82;99.15
80401;BME280;69727;53.132;8.230;2024-02-21T04:54:59;101715.72;;;7.82;99.29
80401;BME280;69727;53.132;8.230;2024-02-21T04:57:25;101718.59;;;7.88;99.12
80401;BME280;69727;53.132;8.230;2024-02-21T04:59:50;101720.91;;;7.83;99.29
80401;BME280;69727;53.132;8.230;2024-02-21T05:02:15;101714.78;;;7.91;99.05
80401;BME280;69727;53.132;8.230;2024-02-21T05:04:42;101720.91;;;7.83;99.09
80401;BME280;69727;53.132;8.230;2024-02-21T05:07:08;101724.78;;;7.89;98.84
80401;BME280;69727;53.132;8.230;2024-02-21T05:09:34;101713.56;;;7.85;99.01
80401;BME280;69727;53.132;8.230;2024-02-21T05:11:59;101711.06;;;7.84;99.09
80401;BME280;69727;53.132;8.230;2024-02-21T05:14:25;101704.25;;;7.89;98.98
80401;BME280;69727;53.132;8.230;2024-02-21T05:16:52;101706.06;;;7.89;99.10
80401;BME280;69727;53.132;8.230;2024-02-21T05:19:17;101699.53;;;7.83;99.34
80401;BME280;69727;53.132;8.230;2024-02-21T05:21:43;101695.53;;;7.87;99.38
80401;BME280;69727;53.132;8.230;2024-02-21T05:24:08;101692.03;;;7.87;99.23
80401;BME280;69727;53.132;8.230;2024-02-21T05:26:33;101685.00;;;7.86;99.38
80401;BME280;69727;53.132;8.230;2024-02-21T05:28:59;101688.19;;;7.89;99.79
80401;BME280;69727;53.132;8.230;2024-02-21T05:31:25;101682.16;;;7.87;99.33
80401;BME280;69727;53.132;8.230;2024-02-21T05:33:50;101687.03;;;7.92;99.11
80401;BME280;69727;53.132;8.230;2024-02-21T05:36:16;101679.84;;;7.93;99.23
80401;BME280;69727;53.132;8.230;2024-02-21T05:38:41;101673.31;;;7.87;99.36
80401;BME280;69727;53.132;8.230;2024-02-21T05:41:07;101675.81;;;7.88;99.20
80401;BME280;69727;53.132;8.230;2024-02-21T05:43:32;101674.34;;;7.94;99.34
80401;BME280;69727;53.132;8.230;2024-02-21T05:45:58;101666.66;;;7.91;99.37
80401;BME280;69727;53.132;8.230;2024-02-21T05:48:24;101668.16;;;7.94;99.29
80401;BME280;69727;53.132;8.230;2024-02-21T05:50:50;101668.84;;;7.96;99.17
80401;BME280;69727;53.132;8.230;2024-02-21T05:53:15;101675.19;;;7.95;99.39
80401;BME280;69727;53.132;8.230;2024-02-21T05:55:41;101660.81;;;7.96;99.40
80401;BME280;69727;53.132;8.230;2024-02-21T05:58:07;101662.81;;;7.94;99.30
80401;BME280;69727;53.132;8.230;2024-02-21T06:00:33;101663.50;;;7.96;99.38
80401;BME280;69727;53.132;8.230;2024-02-21T06:02:59;101674.34;;;7.94;99.37
80401;BME280;69727;53.132;8.230;2024-02-21T06:05:24;101658.31;;;7.94;99.38
80401;BME280;69727;53.132;8.230;2024-02-21T06:07:50;101659.97;;;7.95;99.70
80401;BME280;69727;53.132;8.230;2024-02-21T06:10:16;101658.31;;;7.94;99.45
80401;BME280;69727;53.132;8.230;2024-02-21T06:12:41;101655.19;;;7.99;99.44
80401;BME280;69727;53.132;8.230;2024-02-21T06:15:07;101667.53;;;8.00;99.22
80401;BME280;69727;53.132;8.230;2024-02-21T06:17:33;101650.97;;;7.96;99.21
80401;BME280;69727;53.132;8.230;2024-02-21T06:19:58;101659.50;;;8.00;99.39
80401;BME280;69727;53.132;8.230;2024-02-21T06:22:23;101662.16;;;8.00;99.45
80401;BME280;69727;53.132;8.230;2024-02-21T06:24:49;101658.84;;;7.98;99.19
80401;BME280;69727;53.132;8.230;2024-02-21T06:27:15;101660.19;;;8.02;99.44
80401;BME280;69727;53.132;8.230;2024-02-21T06:29:42;101663.00;;;8.00;99.49
80401;BME280;69727;53.132;8.230;2024-02-21T06:32:08;101657.22;;;8.05;99.19
80401;BME280;69727;53.132;8.230;2024-02-21T06:34:33;101668.06;;;8.03;99.27
80401;BME280;69727;53.132;8.230;2024-02-21T06:36:59;101662.72;;;8.03;99.31
80401;BME280;69727;53.132;8.230;2024-02-21T06:39:24;101667.53;;;8.00;99.14
80401;BME280;69727;53.132;8.230;2024-02-21T06:41:50;101654.69;;;8.03;99.58
80401;BME280;69727;53.132;8.230;2024-02-21T06:44:16;101654.03;;;8.09;99.12
80401;BME280;69727;53.132;8.230;2024-02-21T06:46:42;101657.50;;;8.02;99.28
80401;BME280;69727;53.132;8.230;2024-02-21T06:49:07;101655.38;;;8.05;99.22
80401;BME280;69727;53.132;8.230;2024-02-21T06:51:33;101653.53;;;8.06;99.30
80401;BME280;69727;53.132;8.230;2024-02-21T06:53:59;101654.84;;;8.02;99.37
80401;BME280;69727;53.132;8.230;2024-02-21T06:56:25;101640.63;;;8.01;99.47
80401;BME280;69727;53.132;8.230;2024-02-21T06:58:56;101648.16;;;7.98;99.53
80401;BME280;69727;53.132;8.230;2024-02-21T07:01:22;101645.63;;;7.96;99.62
80401;BME280;69727;53.132;8.230;2024-02-21T07:03:48;101650.63;;;7.99;99.64
80401;BME280;69727;53.132;8.230;2024-02-21T07:06:13;101653.00;;;8.02;99.37
80401;BME280;69727;53.132;8.230;2024-02-21T07:08:38;101659.50;;;8.00;99.34
80401;BME280;69727;53.132;8.230;2024-02-21T07:11:04;101663.41;;;8.05;99.41
80401;BME280;69727;53.132;8.230;2024-02-21T07:13:30;101656.47;;;7.95;99.45
80401;BME280;69727;53.132;8.230;2024-02-21T07:15:55;101654.16;;;8.00;99.41
80401;BME280;69727;53.132;8.230;2024-02-21T07:18:21;101649.00;;;7.98;99.46
80401;BME280;69727;53.132;8.230;2024-02-21T07:20:46;101657.34;;;8.03;99.31
80401;BME280;69727;53.132;8.230;2024-02-21T07:23:11;101649.44;;;7.94;99.61
80401;BME280;69727;53.132;8.230;2024-02-21T07:25:37;101658.31;;;7.94;99.66
80401;BME280;69727;53.132;8.230;2024-02-21T07:28:02;101660.81;;;7.96;99.70
80401;BME280;69727;53.132;8.230;2024-02-21T07:30:28;101658.63;;;7.91;99.57
80401;BME280;69727;53.132;8.230;2024-02-21T07:32:53;101670.84;;;7.94;99.73
80401;BME280;69727;53.132;8.230;2024-02-21T07:35:19;101670.69;;;7.95;99.50
80401;BME280;69727;53.132;8.230;2024-02-21T07:37:44;101662.16;;;8.00;99.46
80401;BME280;69727;53.132;8.230;2024-02-21T07:40:13;101663.00;;;8.00;99.26
80401;BME280;69727;53.132;8.230;2024-02-21T07:42:39;101660.03;;;8.03;99.34
80401;BME280;69727;53.132;8.230;2024-02-21T07:45:06;101661.50;;;7.98;99.38
80401;BME280;69727;53.132;8.230;2024-02-21T07:47:32;101661.13;;;7.93;99.40
80401;BME280;69727;53.132;8.230;2024-02-21T07:49:57;101652.16;;;8.02;99.42
80401;BME280;69727;53.132;8.230;2024-02-21T07:52:23;101656.53;;;8.03;99.21
80401;BME280;69727;53.132;8.230;2024-02-21T07:54:48;101655.97;;;7.99;99.32
80401;BME280;69727;53.132;8.230;2024-02-21T07:57:13;101650.13;;;7.96;99.06
80401;BME280;69727;53.132;8.230;2024-02-21T07:59:39;101649.00;;;8.06;99.30
80401;BME280;69727;53.132;8.230;2024-02-21T08:02:05;101647.69;;;8.10;99.00
80401;BME280;69727;53.132;8.230;2024-02-21T08:04:32;101649.84;;;8.07;98.97
80401;BME280;69727;53.132;8.230;2024-02-21T08:06:57;101648.50;;;8.03;99.03
80401;BME280;69727;53.132;8.230;2024-02-21T08:09:26;101640.47;;;8.03;99.14
80401;BME280;69727;53.132;8.230;2024-02-21T08:11:52;101629.47;;;8.06;99.04
80401;BME280;69727;53.132;8.230;2024-02-21T08:14:17;101631.81;;;8.09;99.33
80401;BME280;69727;53.132;8.230;2024-02-21T08:16:43;101625.81;;;8.15;98.76
80401;BME280;69727;53.132;8.230;2024-02-21T08:19:09;101634.56;;;8.25;98.78
80401;BME280;69727;53.132;8.230;2024-02-21T08:21:35;101635.88;;;8.21;98.90
80401;BME280;69727;53.132;8.230;2024-02-21T08:24:01;101629.38;;;8.23;98.18
80401;BME280;69727;53.132;8.230;2024-02-21T08:26:26;101620.19;;;8.26;98.15
80401;BME280;69727;53.132;8.230;2024-02-21T08:28:55;101620.19;;;8.26;98.02
80401;BME280;69727;53.132;8.230;2024-02-21T08:31:21;101620.84;;;8.20;98.45
80401;BME280;69727;53.132;8.230;2024-02-21T08:33:48;101621.34;;;8.23;98.11
80401;BME280;69727;53.132;8.230;2024-02-21T08:36:19;101616.97;;;8.22;98.20
80401;BME280;69727;53.132;8.230;2024-02-21T08:38:45;101614.84;;;8.26;98.36
80401;BME280;69727;53.132;8.230;2024-02-21T08:41:10;101614.38;;;8.31;98.00
80401;BME280;69727;53.132;8.230;2024-02-21T08:43:36;101601.09;;;8.21;97.83
80401;BME280;69727;53.132;8.230;2024-02-21T08:46:01;101601.63;;;8.24;98.14
80401;BME280;69727;53.132;8.230;2024-02-21T08:48:27;101598.25;;;8.22;98.09
80401;BME280;69727;53.132;8.230;2024-02-21T08:50:52;101600.44;;;8.19;98.18
80401;BME280;69727;53.132;8.230;2024-02-21T08:53:19;101595.94;;;8.19;98.28
80401;BME280;69727;53.132;8.230;2024-02-21T08:55:45;101593.41;;;8.18;97.58
80401;BME280;69727;53.132;8.230;2024-02-21T08:58:11;101596.59;;;8.21;97.85
80401;BME280;69727;53.132;8.230;2024-02-21T09:00:36;101593.25;;;8.19;97.70
80401;BME280;69727;53.132;8.230;2024-02-21T09:03:02;101595.88;;;8.11;97.95
80401;BME280;69727;53.132;8.230;2024-02-21T09:05:28;101591.84;;;8.07;97.96
80401;BME280;69727;53.132;8.230;2024-02-21T09:07:53;101602.53;;;8.07;97.76
80401;BME280;69727;53.132;8.230;2024-02-21T09:10:19;101580.69;;;8.12;97.62
80401;BME280;69727;53.132;8.230;2024-02-21T09:12:44;101595.72;;;8.13;97.53
80401;BME280;69727;53.132;8.230;2024-02-21T09:15:10;101580.88;;;8.18;97.80
80401;BME280;69727;53.132;8.230;2024-02-21T09:17:35;101584.34;;;8.11;98.02
80401;BME280;69727;53.132;8.230;2024-02-21T09:20:01;101585.22;;;8.19;97.59
80401;BME280;69727;53.132;8.230;2024-02-21T09:22:29;101584.53;;;8.17;97.44
80401;BME280;69727;53.132;8.230;2024-02-21T09:24:54;101581.53;;;8.12;97.86
80401;BME280;69727;53.132;8.230;2024-02-21T09:27:20;101588.22;;;8.16;97.48
80401;BME280;69727;53.132;8.230;2024-02-21T09:29:46;101579.84;;;8.11;97.43
80401;BME280;69727;53.132;8.230;2024-02-21T09:32:11;101590.00;;;8.08;97.75
80401;BME280;69727;53.132;8.230;2024-02-21T09:34:37;101583.34;;;8.12;97.82
80401;BME280;69727;53.132;8.230;2024-02-21T09:37:03;101572.31;;;8.15;97.44
80401;BME280;69727;53.132;8.230;2024-02-21T09:39:28;101577.63;;;7.99;97.36
80401;BME280;69727;53.132;8.230;2024-02-21T09:41:59;101577.81;;;8.05;98.08
80401;BME280;69727;53.132;8.230;2024-02-21T09:44:24;101558.59;;;8.10;98.06
80401;BME280;69727;53.132;8.230;2024-02-21T09:46:59;101561.78;;;8.05;97.50
80401;BME280;69727;53.132;8.230;2024-02-21T09:49:30;101557.91;;;8.08;97.63
80401;BME280;69727;53.132;8.230;2024-02-21T09:52:02;101556.38;;;7.97;97.32
80401;BME280;69727;53.132;8.230;2024-02-21T09:54:29;101556.22;;;8.07;97.23
80401;BME280;69727;53.132;8.230;2024-02-21T09:56:57;101546.56;;;8.06;97.38
80401;BME280;69727;53.132;8.230;2024-02-21T09:59:24;101534.19;;;8.05;97.15
80401;BME280;69727;53.132;8.230;2024-02-21T10:01:49;101535.69;;;8.07;97.08
80401;BME280;69727;53.132;8.230;2024-02-21T10:04:19;101528.00;;;8.04;96.73
80401;BME280;69727;53.132;8.230;2024-02-21T10:06:45;101530.97;;;8.01;97.05
80401;BME280;69727;53.132;8.230;2024-02-21T10:09:40;101532.81;;;8.01;97.28
80401;BME280;69727;53.132;8.230;2024-02-21T10:12:11;101526.19;;;8.13;97.09
80401;BME280;69727;53.132;8.230;2024-02-21T10:14:37;101520.81;;;8.05;96.84
80401;BME280;69727;53.132;8.230;2024-02-21T10:17:03;101513.47;;;8.15;96.20
80401;BME280;69727;53.132;8.230;2024-02-21T10:19:34;101521.50;;;8.15;96.57
80401;BME280;69727;53.132;8.230;2024-02-21T10:22:04;101517.81;;;8.16;96.40
80401;BME280;69727;53.132;8.230;2024-02-21T10:24:30;101522.16;;;8.09;96.22
80401;BME280;69727;53.132;8.230;2024-02-21T10:27:05;101516.00;;;8.16;96.49
80401;BME280;69727;53.132;8.230;2024-02-21T10:29:33;101507.28;;;8.14;96.58
80401;BME280;69727;53.132;8.230;2024-02-21T10:32:12;101499.28;;;8.22;96.52
80401;BME280;69727;53.132;8.230;2024-02-21T10:34:40;101502.63;;;8.16;95.89
80401;BME280;69727;53.132;8.230;2024-02-21T10:37:07;101506.31;;;8.23;95.74
80401;BME280;69727;53.132;8.230;2024-02-21T10:39:33;101496.75;;;8.21;95.74
80401;BME280;69727;53.132;8.230;2024-02-21T10:44:26;101485.91;;;8.22;95.95
80401;BME280;69727;53.132;8.230;2024-02-21T10:46:53;101485.44;;;8.35;95.72
80401;BME280;69727;53.132;8.230;2024-02-21T10:49:23;101479.44;;;8.41;95.43
80401;BME280;69727;53.132;8.230;2024-02-21T10:52:14;101475.44;;;8.45;94.96
80401;BME280;69727;53.132;8.230;2024-02-21T10:54:47;101486.50;;;8.66;93.78
80401;BME280;69727;53.132;8.230;2024-02-21T10:57:15;101479.28;;;8.67;93.75
80401;BME280;69727;53.132;8.230;2024-02-21T10:59:41;101475.78;;;8.83;91.53
80401;BME280;69727;53.132;8.230;2024-02-21T11:02:07;101471.22;;;8.99;89.59
80401;BME280;69727;53.132;8.230;2024-02-21T11:04:34;101464.69;;;9.10;89.02
80401;BME280;69727;53.132;8.230;2024-02-21T11:07:04;101454.44;;;9.14;89.16
80401;BME280;69727;53.132;8.230;2024-02-21T11:09:31;101436.00;;;9.27;88.21
80401;BME280;69727;53.132;8.230;2024-02-21T11:11:57;101442.16;;;9.35;87.04
80401;BME280;69727;53.132;8.230;2024-02-21T11:14:27;101433.59;;;9.40;86.40
80401;BME280;69727;53.132;8.230;2024-02-21T11:16:53;101427.06;;;9.42;86.67
80401;BME280;69727;53.132;8.230;2024-02-21T11:19:28;101429.06;;;9.40;86.44
80401;BME280;69727;53.132;8.230;2024-02-21T11:21:55;101416.50;;;9.41;84.62
80401;BME280;69727;53.132;8.230;2024-02-21T11:24:31;101403.78;;;9.43;84.76
80401;BME280;69727;53.132;8.230;2024-02-21T11:29:45;101394.84;;;9.59;84.81
80401;BME280;69727;53.132;8.230;2024-02-21T11:32:14;101394.97;;;9.65;85.23
80401;BME280;69727;53.132;8.230;2024-02-21T11:34:40;101383.44;;;9.57;84.24
80401;BME280;69727;53.132;8.230;2024-02-21T11:37:14;101381.22;;;9.60;83.58
80401;BME280;69727;53.132;8.230;2024-02-21T11:39:42;101383.44;;;9.57;84.05
80401;BME280;69727;53.132;8.230;2024-02-21T11:42:08;101383.53;;;9.71;83.54
80401;BME280;69727;53.132;8.230;2024-02-21T11:44:36;101384.56;;;9.62;82.83
80401;BME280;69727;53.132;8.230;2024-02-21T11:47:08;101365.97;;;9.61;82.58
80401;BME280;69727;53.132;8.230;2024-02-21T11:49:45;101367.66;;;9.62;83.16
80401;BME280;69727;53.132;8.230;2024-02-21T11:52:12;101355.75;;;9.64;81.29
80401;BME280;69727;53.132;8.230;2024-02-21T11:54:40;101360.50;;;9.54;82.33
80401;BME280;69727;53.132;8.230;2024-02-21T11:57:06;101358.56;;;9.71;80.90
80401;BME280;69727;53.132;8.230;2024-02-21T11:59:33;101348.53;;;9.65;81.40
80401;BME280;69727;53.132;8.230;2024-02-21T12:02:02;101342.34;;;9.64;81.19
80401;BME280;69727;53.132;8.230;2024-02-21T12:04:29;101339.78;;;9.71;80.87
80401;BME280;69727;53.132;8.230;2024-02-21T12:06:56;101336.63;;;9.67;80.87
80401;BME280;69727;53.132;8.230;2024-02-21T12:09:23;101335.25;;;9.71;79.74
80401;BME280;69727;53.132;8.230;2024-02-21T12:12:02;101324.53;;;9.71;79.88
80401;BME280;69727;53.132;8.230;2024-02-21T12:14:32;101319.63;;;9.75;80.12
80401;BME280;69727;53.132;8.230;2024-02-21T12:16:58;101322.53;;;9.73;80.82
80401;BME280;69727;53.132;8.230;2024-02-21T12:19:24;101313.63;;;9.73;80.50
80401;BME280;69727;53.132;8.230;2024-02-21T12:21:50;101308.41;;;9.79;80.37
80401;BME280;69727;53.132;8.230;2024-02-21T12:26:42;101289.13;;;9.76;79.21
80401;BME280;69727;53.132;8.230;2024-02-21T12:29:08;101294.03;;;9.72;79.75
80401;BME280;69727;53.132;8.230;2024-02-21T12:31:40;101285.28;;;9.78;79.12
80401;BME280;69727;53.132;8.230;2024-02-21T12:34:06;101279.13;;;9.70;79.40
80401;BME280;69727;53.132;8.230;2024-02-21T12:36:32;101273.78;;;9.70;79.12
80401;BME280;69727;53.132;8.230;2024-02-21T12:39:00;101273.03;;;9.76;79.17
80401;BME280;69727;53.132;8.230;2024-02-21T12:41:29;101266.13;;;9.81;78.42
80401;BME280;69727;53.132;8.230;2024-02-21T12:43:55;101261.69;;;9.74;78.32
80401;BME280;69727;53.132;8.230;2024-02-21T12:46:22;101257.34;;;9.73;78.11
80401;BME280;69727;53.132;8.230;2024-02-21T12:48:47;101249.94;;;9.75;77.86
80401;BME280;69727;53.132;8.230;2024-02-21T12:51:13;101250.97;;;9.74;77.92
80401;BME280;69727;53.132;8.230;2024-02-21T12:53:38;101233.00;;;9.74;78.38
80401;BME280;69727;53.132;8.230;2024-02-21T12:56:04;101221.94;;;9.77;77.35
80401;BME280;69727;53.132;8.230;2024-02-21T12:58:31;101225.72;;;9.83;77.56
80401;BME280;69727;53.132;8.230;2024-02-21T13:00:57;101215.06;;;9.75;77.31
80401;BME280;69727;53.132;8.230;2024-02-21T13:03:22;101206.19;;;9.74;77.13
80401;BME280;69727;53.132;8.230;2024-02-21T13:05:48;101188.19;;;9.83;77.53